• Join FlightAware (Why Join?)
  • Login
  • US Flag 
10:27PM EDT


 

Airport Tracker/Info


-or-


 

Live Flight TrackerFlight Track Log ✈ AWI3970 ✈ 03-May-2013 ✈ KPHL - KALB

Flight Track Log - Related Links

Times and Time Zones

All times are in EDT time to prevent confusion due to time zone crossing. See the AWI3970 flight status page for this flight to view local times or setup timezone preferences in your user account.

Time Position Orientation Groundspeed Altitude Reporting Facility
EDT Latitude Longitude Course Direction KTS MPH feet Rate Location/Type
10:59PM 39.8833 -75.2167 37° Northeast 164 189 600  Level Philadelphia TRACON
11:00PM 39.8667 -75.1500 108° East 196 226 3,100 2,400 Climbing Philadelphia TRACON
11:01PM 39.8500 -75.0667 105° East 244 281 5,700 2,700 Climbing Philadelphia TRACON
11:02PM 39.8167 -74.8809 90° East  Level FlightAware Approximate
11:02PM 39.8333 -74.9833 105° East 261 300 8,600  Level Philadelphia TRACON
11:03PM 39.7956 -74.7612 105° East  Level FlightAware Approximate
11:04PM 39.8199 -74.6635 37° Northeast  Level FlightAware Approximate
11:04PM 39.8056 -74.7808 100° East 298 343 11,700  Level New York Center
11:05PM 39.8322 -74.6742 72° East 311 358 13,900 1,920 Climbing New York Center
11:06PM 39.9097 -74.6003 36° Northeast 294 338 15,700 1,980 Climbing New York Center
11:07PM 39.9997 -74.5183 35° Northeast 358 412 18,000 1,680 Climbing New York Center
11:08PM 40.0753 -74.4411 38° Northeast 347 399 19,100 1,140 Climbing New York Center
11:09PM 40.1528 -74.3611 38° Northeast 347 399 20,300 1,140 Climbing New York Center
11:10PM 40.2342 -74.2836 36° Northeast 347 399 21,400 1,320 Climbing New York Center
11:12PM 40.3572 -74.1803 33° Northeast 354 407 23,800 960 Climbing Boston Center
11:13PM 40.4456 -74.1197 28° Northeast 354 407 24,000 60 Climbing Boston Center
11:14PM 40.5319 -74.0539 30° Northeast 354 407 24,000  Level Boston Center
11:15PM 40.6203 -73.9958 27° Northeast 354 407 24,000  Level Boston Center
11:16PM 40.7044 -73.9322 30° Northeast 354 407 24,000  Level Boston Center
11:17PM 40.7972 -73.8603 30° Northeast 359 413 24,000  Level Boston Center
11:18PM 40.8797 -73.7606 42° Northeast 382 440 24,000 -420 Level Boston Center
11:19PM 40.9867 -73.6856 28° Northeast 401 461 23,200 -540 Descending Boston Center
11:20PM 41.0950 -73.6961 356° North 406 467 23,000 -120 Descending Boston Center
11:21PM 41.2075 -73.7039 357° North 406 467 23,000  Level Boston Center
11:22PM 41.3261 -73.7089 358° North 406 467 23,000 -300 Level Boston Center
11:23PM 41.4408 -73.7167 357° North 406 467 22,500 -720 Descending Boston Center
11:24PM 41.5303 -73.7211 358° North 406 467 21,600 -1,080 Descending Boston Center
11:25PM 41.6614 -73.7294 357° North 401 461 20,400 -1,140 Descending Boston Center
11:26PM 41.7739 -73.7344 358° North 401 461 19,400 -1,020 Descending Boston Center
11:27PM 41.8719 -73.7447 356° North 396 456 18,600 -1,020 Descending Boston Center
11:27PM 41.9383 -73.7517 356° North 395 455 18,000 -900 Descending Boston Center
11:28PM 42.0008 -73.7558 357° North 395 455 17,600 -1,140 Descending Boston Center
11:28PM 42.0467 -73.7569 359° North 387 445 16,900 -1,440 Descending Boston Center
11:29PM 42.0967 -73.7606 357° North 385 443 16,200 -1,500 Descending Boston Center
11:29PM 42.1508 -73.7619 359° North 374 430 15,400 -1,740 Descending Boston Center
11:30PM 42.2092 -73.7658 357° North 373 429 14,500 -1,800 Descending Boston Center
11:30PM 42.2489 -73.7694 356° North 354 407 13,600 -1,800 Descending Boston Center
11:31PM 42.2906 -73.7733 356° North 348 400 12,700 -1,920 Descending Boston Center
11:31PM 42.3364 -73.7742 359° North 303 349 11,700 -2,040 Descending Boston Center
11:32PM 42.3822 -73.7639 North 309 356 10,700 -1,680 Descending Boston Center
11:32PM 42.4156 -73.7589 North 282 325 10,000 -1,740 Descending Boston Center
11:33PM 42.4594 -73.7542 North 280 322 9,000 -1,920 Descending Boston Center
11:33PM 42.4969 -73.7494 North 265 305 8,100 -1,800 Descending Boston Center
11:34PM 42.5325 -73.7475 North 269 310 7,200 -1,920 Descending Boston Center
11:34PM 42.5575 -73.7450 North 263 303 6,400 -2,040 Descending Boston Center
11:35PM 42.6078 -73.7378 North 269 310 5,200 -1,980 Descending Boston Center
11:35PM 42.6369 -73.7300 11° North 261 300 4,400 -1,200 Descending Boston Center
11:36PM 42.6786 -73.7250 North 269 310 4,000 -420 Descending Boston Center
11:36PM 42.7078 -73.7200 North 258 297 4,000 -600 Level Boston Center
11:37PM 42.7475 -73.7153 North 250 288 3,400 -1,200 Descending Boston Center
11:37PM 42.7747 -73.7131 North 247 284 2,800 -1,440 Descending Boston Center
11:38PM 42.8081 -73.7192 352° North 238 274 2,000 -1,200 Descending Boston Center
11:38PM 42.8369 -73.7397 332° Northwest 230 265 1,600 -300 Descending Boston Center
11:39PM 42.8831 -73.7181 19° North 238 274 1,700 -300 Climbing Boston Center
11:39PM 42.8156 -73.7844 216° Southwest 125 144 1,300 -960 Descending Boston Center